sensor_id;sensor_type;location;lat;lon;timestamp;P1;durP1;ratioP1;P2;durP2;ratioP2
28427;SDS011;15662;49.128;8.520;2022-10-31T00:00:29;3.58;;;3.10;;
28427;SDS011;15662;49.128;8.520;2022-10-31T00:02:58;2.80;;;2.60;;
28427;SDS011;15662;49.128;8.520;2022-10-31T00:05:27;2.97;;;2.60;;
28427;SDS011;15662;49.128;8.520;2022-10-31T00:07:57;3.65;;;3.00;;
28427;SDS011;15662;49.128;8.520;2022-10-31T00:10:31;2.63;;;2.42;;
28427;SDS011;15662;49.128;8.520;2022-10-31T00:12:59;3.33;;;2.80;;
28427;SDS011;15662;49.128;8.520;2022-10-31T00:15:28;3.03;;;2.75;;
28427;SDS011;15662;49.128;8.520;2022-10-31T00:18:01;2.88;;;2.67;;
28427;SDS011;15662;49.128;8.520;2022-10-31T00:20:34;2.92;;;2.70;;
28427;SDS011;15662;49.128;8.520;2022-10-31T00:23:03;4.13;;;2.88;;
28427;SDS011;15662;49.128;8.520;2022-10-31T00:25:34;2.72;;;2.53;;
28427;SDS011;15662;49.128;8.520;2022-10-31T00:28:07;3.15;;;2.85;;
28427;SDS011;15662;49.128;8.520;2022-10-31T00:33:06;3.00;;;2.80;;
28427;SDS011;15662;49.128;8.520;2022-10-31T00:35:34;3.30;;;3.00;;
28427;SDS011;15662;49.128;8.520;2022-10-31T00:38:04;5.88;;;3.10;;
28427;SDS011;15662;49.128;8.520;2022-10-31T00:40:32;3.03;;;2.72;;
28427;SDS011;15662;49.128;8.520;2022-10-31T00:43:01;3.08;;;2.88;;
28427;SDS011;15662;49.128;8.520;2022-10-31T00:45:29;3.33;;;2.80;;
28427;SDS011;15662;49.128;8.520;2022-10-31T00:47:59;3.10;;;2.80;;
28427;SDS011;15662;49.128;8.520;2022-10-31T00:50:31;3.90;;;2.08;;
28427;SDS011;15662;49.128;8.520;2022-10-31T00:53:01;3.25;;;2.88;;
28427;SDS011;15662;49.128;8.520;2022-10-31T00:55:31;2.80;;;2.60;;
28427;SDS011;15662;49.128;8.520;2022-10-31T00:57:59;2.80;;;2.35;;
28427;SDS011;15662;49.128;8.520;2022-10-31T01:00:30;2.10;;;2.00;;
28427;SDS011;15662;49.128;8.520;2022-10-31T01:03:17;2.00;;;1.85;;
28427;SDS011;15662;49.128;8.520;2022-10-31T01:05:45;2.67;;;2.20;;
28427;SDS011;15662;49.128;8.520;2022-10-31T01:08:14;2.42;;;2.33;;
28427;SDS011;15662;49.128;8.520;2022-10-31T01:10:44;2.70;;;2.50;;
28427;SDS011;15662;49.128;8.520;2022-10-31T01:13:12;2.67;;;2.47;;
28427;SDS011;15662;49.128;8.520;2022-10-31T01:15:53;4.93;;;2.92;;
28427;SDS011;15662;49.128;8.520;2022-10-31T01:18:23;3.03;;;2.70;;
28427;SDS011;15662;49.128;8.520;2022-10-31T01:21:01;3.45;;;3.15;;
28427;SDS011;15662;49.128;8.520;2022-10-31T01:23:42;3.97;;;2.55;;
28427;SDS011;15662;49.128;8.520;2022-10-31T01:26:23;3.60;;;2.80;;
28427;SDS011;15662;49.128;8.520;2022-10-31T01:29:05;3.33;;;2.60;;
28427;SDS011;15662;49.128;8.520;2022-10-31T01:31:39;2.70;;;2.50;;
28427;SDS011;15662;49.128;8.520;2022-10-31T01:34:10;4.05;;;2.40;;
28427;SDS011;15662;49.128;8.520;2022-10-31T01:36:43;2.33;;;2.13;;
28427;SDS011;15662;49.128;8.520;2022-10-31T01:39:19;2.10;;;1.90;;
28427;SDS011;15662;49.128;8.520;2022-10-31T01:41:48;6.47;;;2.20;;
28427;SDS011;15662;49.128;8.520;2022-10-31T01:46:55;2.10;;;1.90;;
28427;SDS011;15662;49.128;8.520;2022-10-31T01:52:12;1.88;;;1.70;;
28427;SDS011;15662;49.128;8.520;2022-10-31T01:57:58;2.28;;;1.90;;
28427;SDS011;15662;49.128;8.520;2022-10-31T02:00:32;2.10;;;1.90;;
28427;SDS011;15662;49.128;8.520;2022-10-31T03:56:52;4.82;;;3.30;;
28427;SDS011;15662;49.128;8.520;2022-10-31T03:59:32;4.25;;;2.80;;
28427;SDS011;15662;49.128;8.520;2022-10-31T04:02:15;4.72;;;3.13;;
28427;SDS011;15662;49.128;8.520;2022-10-31T04:04:50;3.58;;;2.90;;
28427;SDS011;15662;49.128;8.520;2022-10-31T04:07:21;3.83;;;2.47;;
28427;SDS011;15662;49.128;8.520;2022-10-31T04:09:54;2.50;;;2.05;;
28427;SDS011;15662;49.128;8.520;2022-10-31T04:12:31;3.60;;;2.20;;
28427;SDS011;15662;49.128;8.520;2022-10-31T04:15:17;2.05;;;1.95;;
28427;SDS011;15662;49.128;8.520;2022-10-31T04:17:46;1.85;;;1.75;;
28427;SDS011;15662;49.128;8.520;2022-10-31T04:20:18;1.73;;;1.63;;
28427;SDS011;15662;49.128;8.520;2022-10-31T04:22:59;1.77;;;1.67;;
28427;SDS011;15662;49.128;8.520;2022-10-31T04:25:28;1.70;;;1.60;;
28427;SDS011;15662;49.128;8.520;2022-10-31T04:27:58;1.67;;;1.58;;
28427;SDS011;15662;49.128;8.520;2022-10-31T04:30:29;1.77;;;1.67;;
28427;SDS011;15662;49.128;8.520;2022-10-31T04:32:58;1.98;;;1.77;;
28427;SDS011;15662;49.128;8.520;2022-10-31T04:35:28;1.42;;;1.42;;
28427;SDS011;15662;49.128;8.520;2022-10-31T04:37:58;2.15;;;1.98;;
28427;SDS011;15662;49.128;8.520;2022-10-31T04:40:26;2.17;;;2.00;;
28427;SDS011;15662;49.128;8.520;2022-10-31T04:43:30;3.20;;;2.13;;
28427;SDS011;15662;49.128;8.520;2022-10-31T04:46:02;2.80;;;2.60;;
28427;SDS011;15662;49.128;8.520;2022-10-31T04:48:33;3.78;;;3.15;;
28427;SDS011;15662;49.128;8.520;2022-10-31T04:51:06;3.58;;;2.72;;
28427;SDS011;15662;49.128;8.520;2022-10-31T04:53:35;3.83;;;2.50;;
28427;SDS011;15662;49.128;8.520;2022-10-31T04:56:39;4.38;;;2.60;;
28427;SDS011;15662;49.128;8.520;2022-10-31T04:59:15;4.60;;;2.70;;
28427;SDS011;15662;49.128;8.520;2022-10-31T05:01:51;3.88;;;2.60;;
28427;SDS011;15662;49.128;8.520;2022-10-31T05:04:29;2.70;;;2.47;;
28427;SDS011;15662;49.128;8.520;2022-10-31T05:07:02;4.38;;;2.50;;
28427;SDS011;15662;49.128;8.520;2022-10-31T05:09:33;5.00;;;2.92;;
28427;SDS011;15662;49.128;8.520;2022-10-31T05:12:01;3.35;;;2.97;;
28427;SDS011;15662;49.128;8.520;2022-10-31T05:15:08;9.18;;;2.65;;
28427;SDS011;15662;49.128;8.520;2022-10-31T05:17:58;2.78;;;2.47;;
28427;SDS011;15662;49.128;8.520;2022-10-31T05:20:59;34.58;;;17.15;;
28427;SDS011;15662;49.128;8.520;2022-10-31T05:23:34;63.00;;;26.17;;
28427;SDS011;15662;49.128;8.520;2022-10-31T05:26:04;42.90;;;19.20;;
28427;SDS011;15662;49.128;8.520;2022-10-31T05:28:34;67.75;;;30.90;;
28427;SDS011;15662;49.128;8.520;2022-10-31T05:31:04;79.85;;;41.22;;
28427;SDS011;15662;49.128;8.520;2022-10-31T05:33:34;105.55;;;58.75;;
28427;SDS011;15662;49.128;8.520;2022-10-31T05:36:07;34.03;;;22.17;;
28427;SDS011;15662;49.128;8.520;2022-10-31T05:38:48;18.33;;;11.32;;
28427;SDS011;15662;49.128;8.520;2022-10-31T05:41:23;21.35;;;13.45;;
28427;SDS011;15662;49.128;8.520;2022-10-31T05:44:02;36.80;;;22.42;;
28427;SDS011;15662;49.128;8.520;2022-10-31T05:46:40;41.50;;;24.50;;
28427;SDS011;15662;49.128;8.520;2022-10-31T05:49:24;35.08;;;21.42;;
28427;SDS011;15662;49.128;8.520;2022-10-31T05:52:12;21.60;;;14.20;;
28427;SDS011;15662;49.128;8.520;2022-10-31T05:54:49;10.32;;;7.10;;
28427;SDS011;15662;49.128;8.520;2022-10-31T05:57:17;4.50;;;4.00;;
28427;SDS011;15662;49.128;8.520;2022-10-31T05:59:46;3.22;;;2.92;;
28427;SDS011;15662;49.128;8.520;2022-10-31T06:02:22;2.78;;;2.50;;
28427;SDS011;15662;49.128;8.520;2022-10-31T06:05:11;3.50;;;2.58;;
28427;SDS011;15662;49.128;8.520;2022-10-31T06:10:10;6.68;;;3.15;;
28427;SDS011;15662;49.128;8.520;2022-10-31T07:54:28;7.70;;;3.45;;
28427;SDS011;15662;49.128;8.520;2022-10-31T07:56:57;7.88;;;4.10;;
28427;SDS011;15662;49.128;8.520;2022-10-31T07:59:29;6.18;;;3.80;;
28427;SDS011;15662;49.128;8.520;2022-10-31T08:02:00;6.68;;;3.72;;
28427;SDS011;15662;49.128;8.520;2022-10-31T08:04:33;5.00;;;3.78;;
28427;SDS011;15662;49.128;8.520;2022-10-31T08:07:22;7.80;;;3.60;;
28427;SDS011;15662;49.128;8.520;2022-10-31T08:10:01;5.97;;;3.63;;
28427;SDS011;15662;49.128;8.520;2022-10-31T08:12:31;6.00;;;3.97;;
28427;SDS011;15662;49.128;8.520;2022-10-31T08:15:00;5.25;;;3.67;;
28427;SDS011;15662;49.128;8.520;2022-10-31T08:17:30;5.55;;;3.70;;
28427;SDS011;15662;49.128;8.520;2022-10-31T08:20:04;3.88;;;3.47;;
28427;SDS011;15662;49.128;8.520;2022-10-31T08:22:42;6.50;;;3.85;;
28427;SDS011;15662;49.128;8.520;2022-10-31T08:25:21;4.75;;;3.70;;
28427;SDS011;15662;49.128;8.520;2022-10-31T08:27:51;8.52;;;5.60;;
28427;SDS011;15662;49.128;8.520;2022-10-31T08:30:24;6.72;;;4.07;;
28427;SDS011;15662;49.128;8.520;2022-10-31T08:33:32;6.07;;;3.50;;
28427;SDS011;15662;49.128;8.520;2022-10-31T08:36:24;6.95;;;3.78;;
28427;SDS011;15662;49.128;8.520;2022-10-31T08:38:52;4.10;;;3.70;;
28427;SDS011;15662;49.128;8.520;2022-10-31T08:41:29;4.93;;;3.80;;
28427;SDS011;15662;49.128;8.520;2022-10-31T08:44:00;4.73;;;3.70;;
28427;SDS011;15662;49.128;8.520;2022-10-31T08:46:31;5.70;;;3.40;;
28427;SDS011;15662;49.128;8.520;2022-10-31T08:49:00;4.50;;;3.78;;
28427;SDS011;15662;49.128;8.520;2022-10-31T08:51:30;5.53;;;3.42;;
28427;SDS011;15662;49.128;8.520;2022-10-31T08:53:58;5.88;;;3.63;;
28427;SDS011;15662;49.128;8.520;2022-10-31T08:56:33;7.70;;;3.42;;
28427;SDS011;15662;49.128;8.520;2022-10-31T08:59:25;4.27;;;3.50;;
28427;SDS011;15662;49.128;8.520;2022-10-31T09:02:13;3.55;;;3.25;;
28427;SDS011;15662;49.128;8.520;2022-10-31T09:04:48;3.35;;;3.05;;
28427;SDS011;15662;49.128;8.520;2022-10-31T09:07:30;5.18;;;3.75;;
28427;SDS011;15662;49.128;8.520;2022-10-31T09:10:01;7.70;;;4.40;;
28427;SDS011;15662;49.128;8.520;2022-10-31T09:15:39;4.82;;;3.75;;
28427;SDS011;15662;49.128;8.520;2022-10-31T09:18:29;4.75;;;3.40;;
28427;SDS011;15662;49.128;8.520;2022-10-31T09:20:59;5.35;;;3.58;;
28427;SDS011;15662;49.128;8.520;2022-10-31T09:23:30;4.15;;;3.50;;
28427;SDS011;15662;49.128;8.520;2022-10-31T09:26:01;8.33;;;3.63;;
28427;SDS011;15662;49.128;8.520;2022-10-31T09:28:37;8.02;;;3.95;;
28427;SDS011;15662;49.128;8.520;2022-10-31T09:31:10;6.38;;;3.72;;
28427;SDS011;15662;49.128;8.520;2022-10-31T09:33:54;6.55;;;3.80;;
28427;SDS011;15662;49.128;8.520;2022-10-31T09:36:35;4.72;;;3.85;;
28427;SDS011;15662;49.128;8.520;2022-10-31T09:39:18;6.38;;;3.83;;
28427;SDS011;15662;49.128;8.520;2022-10-31T09:42:08;4.43;;;3.60;;
28427;SDS011;15662;49.128;8.520;2022-10-31T09:45:39;7.57;;;3.53;;
28427;SDS011;15662;49.128;8.520;2022-10-31T09:52:36;7.75;;;6.45;;
28427;SDS011;15662;49.128;8.520;2022-10-31T09:55:26;6.30;;;4.68;;
28427;SDS011;15662;49.128;8.520;2022-10-31T09:58:21;6.25;;;3.83;;
28427;SDS011;15662;49.128;8.520;2022-10-31T10:01:03;4.40;;;3.80;;
28427;SDS011;15662;49.128;8.520;2022-10-31T10:03:34;6.45;;;3.88;;
28427;SDS011;15662;49.128;8.520;2022-10-31T10:06:29;4.22;;;3.63;;
28427;SDS011;15662;49.128;8.520;2022-10-31T10:09:25;4.45;;;3.53;;
28427;SDS011;15662;49.128;8.520;2022-10-31T10:18:26;4.75;;;3.50;;
28427;SDS011;15662;49.128;8.520;2022-10-31T10:21:27;6.03;;;3.63;;
28427;SDS011;15662;49.128;8.520;2022-10-31T10:32:28;5.57;;;3.97;;
28427;SDS011;15662;49.128;8.520;2022-10-31T10:35:19;4.55;;;3.42;;
28427;SDS011;15662;49.128;8.520;2022-10-31T10:38:39;8.73;;;4.20;;
28427;SDS011;15662;49.128;8.520;2022-10-31T10:40:47;4.53;;;3.53;;
28427;SDS011;15662;49.128;8.520;2022-10-31T10:46:16;8.50;;;3.97;;
28427;SDS011;15662;49.128;8.520;2022-10-31T10:49:17;5.82;;;3.88;;
28427;SDS011;15662;49.128;8.520;2022-10-31T10:52:32;4.95;;;3.92;;
28427;SDS011;15662;49.128;8.520;2022-10-31T10:55:56;5.43;;;4.32;;
28427;SDS011;15662;49.128;8.520;2022-10-31T10:58:34;4.43;;;3.72;;
28427;SDS011;15662;49.128;8.520;2022-10-31T11:01:10;7.03;;;3.85;;
28427;SDS011;15662;49.128;8.520;2022-10-31T11:03:43;5.05;;;3.53;;
28427;SDS011;15662;49.128;8.520;2022-10-31T11:06:19;4.60;;;3.50;;
28427;SDS011;15662;49.128;8.520;2022-10-31T11:08:53;4.22;;;3.60;;
28427;SDS011;15662;49.128;8.520;2022-10-31T11:11:28;5.57;;;3.63;;
28427;SDS011;15662;49.128;8.520;2022-10-31T11:14:05;8.38;;;3.70;;
28427;SDS011;15662;49.128;8.520;2022-10-31T11:16:43;5.43;;;3.80;;
28427;SDS011;15662;49.128;8.520;2022-10-31T11:21:44;6.47;;;3.80;;
28427;SDS011;15662;49.128;8.520;2022-10-31T11:24:22;9.90;;;5.55;;
28427;SDS011;15662;49.128;8.520;2022-10-31T11:27:20;8.07;;;4.05;;
28427;SDS011;15662;49.128;8.520;2022-10-31T11:29:51;15.57;;;7.57;;
28427;SDS011;15662;49.128;8.520;2022-10-31T11:32:26;42.60;;;18.55;;
28427;SDS011;15662;49.128;8.520;2022-10-31T11:34:57;18.73;;;9.97;;
28427;SDS011;15662;49.128;8.520;2022-10-31T11:37:30;14.35;;;7.75;;
28427;SDS011;15662;49.128;8.520;2022-10-31T11:40:05;7.90;;;5.03;;
28427;SDS011;15662;49.128;8.520;2022-10-31T11:42:39;7.85;;;4.38;;
28427;SDS011;15662;49.128;8.520;2022-10-31T11:52:24;7.35;;;3.88;;
28427;SDS011;15662;49.128;8.520;2022-10-31T12:40:57;8.07;;;4.20;;
28427;SDS011;15662;49.128;8.520;2022-10-31T12:44:06;8.13;;;4.20;;
28427;SDS011;15662;49.128;8.520;2022-10-31T12:59:12;8.13;;;4.50;;
28427;SDS011;15662;49.128;8.520;2022-10-31T13:02:13;8.05;;;4.97;;
28427;SDS011;15662;49.128;8.520;2022-10-31T13:07:41;6.97;;;4.18;;
28427;SDS011;15662;49.128;8.520;2022-10-31T13:12:45;11.73;;;5.03;;
28427;SDS011;15662;49.128;8.520;2022-10-31T13:15:23;7.32;;;5.60;;
28427;SDS011;15662;49.128;8.520;2022-10-31T13:17:59;8.65;;;5.30;;
28427;SDS011;15662;49.128;8.520;2022-10-31T13:20:37;49.60;;;22.33;;
28427;SDS011;15662;49.128;8.520;2022-10-31T13:23:27;23.40;;;11.75;;
28427;SDS011;15662;49.128;8.520;2022-10-31T13:26:38;10.05;;;5.65;;
28427;SDS011;15662;49.128;8.520;2022-10-31T13:32:00;5.95;;;4.97;;
28427;SDS011;15662;49.128;8.520;2022-10-31T13:34:40;7.45;;;4.32;;
28427;SDS011;15662;49.128;8.520;2022-10-31T13:37:41;7.90;;;4.55;;
28427;SDS011;15662;49.128;8.520;2022-10-31T13:49:23;10.32;;;4.65;;
28427;SDS011;15662;49.128;8.520;2022-10-31T13:54:54;10.93;;;4.68;;
28427;SDS011;15662;49.128;8.520;2022-10-31T13:57:43;7.00;;;4.65;;
28427;SDS011;15662;49.128;8.520;2022-10-31T14:00:23;5.68;;;4.47;;
28427;SDS011;15662;49.128;8.520;2022-10-31T14:02:57;7.85;;;4.57;;
28427;SDS011;15662;49.128;8.520;2022-10-31T14:05:33;5.13;;;4.18;;
28427;SDS011;15662;49.128;8.520;2022-10-31T14:08:04;7.13;;;4.25;;
28427;SDS011;15662;49.128;8.520;2022-10-31T14:10:52;9.93;;;4.70;;
28427;SDS011;15662;49.128;8.520;2022-10-31T14:13:26;6.72;;;4.32;;
28427;SDS011;15662;49.128;8.520;2022-10-31T14:16:00;7.38;;;4.32;;
28427;SDS011;15662;49.128;8.520;2022-10-31T14:18:45;6.40;;;4.13;;
28427;SDS011;15662;49.128;8.520;2022-10-31T14:21:26;13.10;;;4.60;;
28427;SDS011;15662;49.128;8.520;2022-10-31T14:23:57;10.82;;;4.45;;
28427;SDS011;15662;49.128;8.520;2022-10-31T14:26:31;5.85;;;4.28;;
28427;SDS011;15662;49.128;8.520;2022-10-31T14:31:43;7.20;;;4.30;;
28427;SDS011;15662;49.128;8.520;2022-10-31T14:46:37;11.90;;;4.35;;
28427;SDS011;15662;49.128;8.520;2022-10-31T14:49:32;5.50;;;4.53;;
28427;SDS011;15662;49.128;8.520;2022-10-31T14:52:12;7.60;;;5.30;;
28427;SDS011;15662;49.128;8.520;2022-10-31T14:54:45;6.07;;;5.18;;
28427;SDS011;15662;49.128;8.520;2022-10-31T14:57:22;6.68;;;4.93;;
28427;SDS011;15662;49.128;8.520;2022-10-31T15:00:00;8.18;;;4.05;;
28427;SDS011;15662;49.128;8.520;2022-10-31T15:06:16;5.70;;;3.58;;
28427;SDS011;15662;49.128;8.520;2022-10-31T15:08:52;6.38;;;3.83;;
28427;SDS011;15662;49.128;8.520;2022-10-31T15:11:24;5.82;;;3.80;;
28427;SDS011;15662;49.128;8.520;2022-10-31T15:13:55;9.98;;;4.03;;
28427;SDS011;15662;49.128;8.520;2022-10-31T15:16:30;6.32;;;4.38;;
28427;SDS011;15662;49.128;8.520;2022-10-31T15:19:04;8.25;;;4.05;;
28427;SDS011;15662;49.128;8.520;2022-10-31T15:21:50;5.93;;;4.10;;
28427;SDS011;15662;49.128;8.520;2022-10-31T15:24:22;8.25;;;4.43;;
28427;SDS011;15662;49.128;8.520;2022-10-31T15:27:02;8.20;;;4.32;;
28427;SDS011;15662;49.128;8.520;2022-10-31T15:32:24;10.18;;;5.20;;
28427;SDS011;15662;49.128;8.520;2022-10-31T15:34:53;6.50;;;4.67;;
28427;SDS011;15662;49.128;8.520;2022-10-31T15:37:24;9.35;;;3.88;;
28427;SDS011;15662;49.128;8.520;2022-10-31T15:39:54;9.13;;;4.50;;
28427;SDS011;15662;49.128;8.520;2022-10-31T15:42:27;7.05;;;4.65;;
28427;SDS011;15662;49.128;8.520;2022-10-31T15:47:38;16.67;;;14.98;;
28427;SDS011;15662;49.128;8.520;2022-10-31T15:50:26;10.77;;;9.20;;
28427;SDS011;15662;49.128;8.520;2022-10-31T15:53:18;8.80;;;6.28;;
28427;SDS011;15662;49.128;8.520;2022-10-31T15:56:19;9.40;;;4.85;;
28427;SDS011;15662;49.128;8.520;2022-10-31T15:58:53;10.35;;;4.85;;
28427;SDS011;15662;49.128;8.520;2022-10-31T16:01:30;7.53;;;5.05;;
28427;SDS011;15662;49.128;8.520;2022-10-31T16:06:39;8.00;;;4.55;;
28427;SDS011;15662;49.128;8.520;2022-10-31T16:09:23;7.55;;;4.85;;
28427;SDS011;15662;49.128;8.520;2022-10-31T16:11:51;8.45;;;4.97;;
28427;SDS011;15662;49.128;8.520;2022-10-31T16:14:22;10.52;;;5.10;;
28427;SDS011;15662;49.128;8.520;2022-10-31T16:16:55;7.47;;;5.05;;
28427;SDS011;15662;49.128;8.520;2022-10-31T16:19:31;12.02;;;5.40;;
28427;SDS011;15662;49.128;8.520;2022-10-31T16:22:13;7.70;;;5.15;;
28427;SDS011;15662;49.128;8.520;2022-10-31T16:25:08;8.77;;;6.00;;
28427;SDS011;15662;49.128;8.520;2022-10-31T16:27:47;10.30;;;6.47;;
28427;SDS011;15662;49.128;8.520;2022-10-31T16:33:22;11.05;;;7.32;;
28427;SDS011;15662;49.128;8.520;2022-10-31T16:35:51;11.00;;;5.95;;
28427;SDS011;15662;49.128;8.520;2022-10-31T16:38:35;9.07;;;5.13;;
28427;SDS011;15662;49.128;8.520;2022-10-31T16:41:04;9.05;;;4.55;;
28427;SDS011;15662;49.128;8.520;2022-10-31T16:43:34;9.73;;;6.88;;
28427;SDS011;15662;49.128;8.520;2022-10-31T16:46:02;7.57;;;5.30;;
28427;SDS011;15662;49.128;8.520;2022-10-31T16:48:31;9.70;;;5.32;;
28427;SDS011;15662;49.128;8.520;2022-10-31T16:51:02;8.23;;;5.30;;
28427;SDS011;15662;49.128;8.520;2022-10-31T16:53:30;8.52;;;5.88;;
28427;SDS011;15662;49.128;8.520;2022-10-31T16:56:01;8.60;;;5.63;;
28427;SDS011;15662;49.128;8.520;2022-10-31T16:58:31;10.27;;;5.78;;
28427;SDS011;15662;49.128;8.520;2022-10-31T17:01:02;7.55;;;4.95;;
28427;SDS011;15662;49.128;8.520;2022-10-31T17:03:34;11.38;;;5.60;;
28427;SDS011;15662;49.128;8.520;2022-10-31T17:06:03;6.40;;;5.10;;
28427;SDS011;15662;49.128;8.520;2022-10-31T17:08:32;5.68;;;5.00;;
28427;SDS011;15662;49.128;8.520;2022-10-31T17:11:00;8.45;;;5.72;;
28427;SDS011;15662;49.128;8.520;2022-10-31T17:13:29;10.75;;;5.95;;
28427;SDS011;15662;49.128;8.520;2022-10-31T17:16:01;10.23;;;6.28;;
28427;SDS011;15662;49.128;8.520;2022-10-31T17:18:30;10.45;;;6.25;;
28427;SDS011;15662;49.128;8.520;2022-10-31T17:21:02;8.50;;;6.00;;
28427;SDS011;15662;49.128;8.520;2022-10-31T17:23:34;7.07;;;5.65;;
28427;SDS011;15662;49.128;8.520;2022-10-31T17:26:04;14.02;;;6.05;;
28427;SDS011;15662;49.128;8.520;2022-10-31T17:28:35;10.73;;;6.05;;
28427;SDS011;15662;49.128;8.520;2022-10-31T17:31:04;8.48;;;6.57;;
28427;SDS011;15662;49.128;8.520;2022-10-31T17:33:33;9.68;;;6.07;;
28427;SDS011;15662;49.128;8.520;2022-10-31T17:36:02;14.93;;;7.32;;
28427;SDS011;15662;49.128;8.520;2022-10-31T17:38:30;16.70;;;11.55;;
28427;SDS011;15662;49.128;8.520;2022-10-31T17:41:03;13.75;;;9.25;;
28427;SDS011;15662;49.128;8.520;2022-10-31T17:43:40;8.77;;;6.53;;
28427;SDS011;15662;49.128;8.520;2022-10-31T17:46:08;13.30;;;9.10;;
28427;SDS011;15662;49.128;8.520;2022-10-31T17:48:36;12.70;;;8.98;;
28427;SDS011;15662;49.128;8.520;2022-10-31T17:51:05;11.88;;;8.02;;
28427;SDS011;15662;49.128;8.520;2022-10-31T17:53:34;10.18;;;7.60;;
28427;SDS011;15662;49.128;8.520;2022-10-31T17:56:07;10.27;;;7.30;;
28427;SDS011;15662;49.128;8.520;2022-10-31T17:58:36;10.77;;;6.85;;
28427;SDS011;15662;49.128;8.520;2022-10-31T18:01:08;12.48;;;9.00;;
28427;SDS011;15662;49.128;8.520;2022-10-31T18:03:39;13.35;;;9.02;;
28427;SDS011;15662;49.128;8.520;2022-10-31T18:06:09;11.73;;;9.07;;
28427;SDS011;15662;49.128;8.520;2022-10-31T18:08:40;9.50;;;7.18;;
28427;SDS011;15662;49.128;8.520;2022-10-31T18:11:11;9.27;;;6.28;;
28427;SDS011;15662;49.128;8.520;2022-10-31T18:13:46;8.07;;;5.85;;
28427;SDS011;15662;49.128;8.520;2022-10-31T18:16:15;9.20;;;5.97;;
28427;SDS011;15662;49.128;8.520;2022-10-31T18:18:49;11.05;;;6.60;;
28427;SDS011;15662;49.128;8.520;2022-10-31T18:21:22;8.57;;;5.32;;
28427;SDS011;15662;49.128;8.520;2022-10-31T18:23:54;7.75;;;5.63;;
28427;SDS011;15662;49.128;8.520;2022-10-31T18:26:24;7.63;;;5.70;;
28427;SDS011;15662;49.128;8.520;2022-10-31T18:28:54;8.95;;;5.47;;
28427;SDS011;15662;49.128;8.520;2022-10-31T18:31:22;10.93;;;5.20;;
28427;SDS011;15662;49.128;8.520;2022-10-31T18:33:51;9.55;;;4.45;;
28427;SDS011;15662;49.128;8.520;2022-10-31T18:36:21;6.50;;;5.20;;
28427;SDS011;15662;49.128;8.520;2022-10-31T18:38:51;10.30;;;5.05;;
28427;SDS011;15662;49.128;8.520;2022-10-31T18:41:20;8.18;;;5.57;;
28427;SDS011;15662;49.128;8.520;2022-10-31T18:43:48;8.45;;;4.93;;
28427;SDS011;15662;49.128;8.520;2022-10-31T18:46:16;7.97;;;4.60;;
28427;SDS011;15662;49.128;8.520;2022-10-31T18:48:45;9.52;;;5.15;;
28427;SDS011;15662;49.128;8.520;2022-10-31T18:51:13;11.75;;;6.90;;
28427;SDS011;15662;49.128;8.520;2022-10-31T18:53:51;17.92;;;13.68;;
28427;SDS011;15662;49.128;8.520;2022-10-31T18:56:25;17.35;;;10.27;;
28427;SDS011;15662;49.128;8.520;2022-10-31T18:58:58;14.43;;;8.02;;
28427;SDS011;15662;49.128;8.520;2022-10-31T19:01:29;11.65;;;6.60;;
28427;SDS011;15662;49.128;8.520;2022-10-31T19:03:58;9.90;;;7.55;;
28427;SDS011;15662;49.128;8.520;2022-10-31T19:06:26;13.32;;;8.00;;
28427;SDS011;15662;49.128;8.520;2022-10-31T19:09:01;11.50;;;7.25;;
28427;SDS011;15662;49.128;8.520;2022-10-31T19:11:52;12.88;;;7.93;;
28427;SDS011;15662;49.128;8.520;2022-10-31T19:14:21;9.70;;;7.50;;
28427;SDS011;15662;49.128;8.520;2022-10-31T19:16:50;10.70;;;8.35;;
28427;SDS011;15662;49.128;8.520;2022-10-31T19:19:19;12.05;;;7.55;;
28427;SDS011;15662;49.128;8.520;2022-10-31T19:21:47;10.30;;;7.85;;
28427;SDS011;15662;49.128;8.520;2022-10-31T19:24:15;10.48;;;7.72;;
28427;SDS011;15662;49.128;8.520;2022-10-31T19:26:44;12.07;;;7.93;;
28427;SDS011;15662;49.128;8.520;2022-10-31T19:29:14;12.93;;;8.60;;
28427;SDS011;15662;49.128;8.520;2022-10-31T19:31:44;10.52;;;8.38;;
28427;SDS011;15662;49.128;8.520;2022-10-31T19:34:13;12.38;;;8.90;;
28427;SDS011;15662;49.128;8.520;2022-10-31T19:36:43;13.65;;;8.95;;
28427;SDS011;15662;49.128;8.520;2022-10-31T19:39:11;12.38;;;8.75;;
28427;SDS011;15662;49.128;8.520;2022-10-31T19:41:40;10.57;;;8.38;;
28427;SDS011;15662;49.128;8.520;2022-10-31T19:44:08;12.57;;;8.38;;
28427;SDS011;15662;49.128;8.520;2022-10-31T19:46:42;10.52;;;7.88;;
28427;SDS011;15662;49.128;8.520;2022-10-31T19:49:21;10.00;;;6.75;;
28427;SDS011;15662;49.128;8.520;2022-10-31T19:51:50;9.30;;;6.43;;
28427;SDS011;15662;49.128;8.520;2022-10-31T19:54:18;8.43;;;6.35;;
28427;SDS011;15662;49.128;8.520;2022-10-31T19:56:46;8.85;;;6.28;;
28427;SDS011;15662;49.128;8.520;2022-10-31T19:59:14;13.18;;;6.15;;
28427;SDS011;15662;49.128;8.520;2022-10-31T20:04:14;10.50;;;5.30;;
28427;SDS011;15662;49.128;8.520;2022-10-31T20:06:43;7.90;;;5.70;;
28427;SDS011;15662;49.128;8.520;2022-10-31T20:09:11;7.78;;;6.10;;
28427;SDS011;15662;49.128;8.520;2022-10-31T20:11:41;8.30;;;6.10;;
28427;SDS011;15662;49.128;8.520;2022-10-31T20:14:12;9.80;;;6.47;;
28427;SDS011;15662;49.128;8.520;2022-10-31T20:16:43;9.23;;;6.40;;
28427;SDS011;15662;49.128;8.520;2022-10-31T20:19:11;11.15;;;6.65;;
28427;SDS011;15662;49.128;8.520;2022-10-31T20:21:40;10.77;;;7.97;;
28427;SDS011;15662;49.128;8.520;2022-10-31T20:24:08;16.33;;;11.95;;
28427;SDS011;15662;49.128;8.520;2022-10-31T20:26:37;15.40;;;12.00;;
28427;SDS011;15662;49.128;8.520;2022-10-31T20:29:08;15.45;;;11.90;;
28427;SDS011;15662;49.128;8.520;2022-10-31T20:31:42;14.50;;;11.75;;
28427;SDS011;15662;49.128;8.520;2022-10-31T20:34:12;12.77;;;10.52;;
28427;SDS011;15662;49.128;8.520;2022-10-31T20:36:41;10.07;;;9.05;;
28427;SDS011;15662;49.128;8.520;2022-10-31T20:39:09;14.93;;;10.82;;
28427;SDS011;15662;49.128;8.520;2022-10-31T20:41:37;12.35;;;10.38;;
28427;SDS011;15662;49.128;8.520;2022-10-31T20:44:05;11.52;;;8.63;;
28427;SDS011;15662;49.128;8.520;2022-10-31T20:46:33;12.68;;;8.82;;
28427;SDS011;15662;49.128;8.520;2022-10-31T20:49:02;26.73;;;19.55;;
28427;SDS011;15662;49.128;8.520;2022-10-31T20:51:30;19.40;;;14.35;;
28427;SDS011;15662;49.128;8.520;2022-10-31T20:53:59;19.63;;;11.93;;
28427;SDS011;15662;49.128;8.520;2022-10-31T20:56:27;12.68;;;10.57;;
28427;SDS011;15662;49.128;8.520;2022-10-31T20:58:56;13.50;;;9.85;;
28427;SDS011;15662;49.128;8.520;2022-10-31T21:01:25;15.65;;;9.60;;
28427;SDS011;15662;49.128;8.520;2022-10-31T21:03:56;12.27;;;9.25;;
28427;SDS011;15662;49.128;8.520;2022-10-31T21:06:25;11.65;;;8.40;;
28427;SDS011;15662;49.128;8.520;2022-10-31T21:08:54;11.63;;;8.35;;
28427;SDS011;15662;49.128;8.520;2022-10-31T21:11:24;11.15;;;7.90;;
28427;SDS011;15662;49.128;8.520;2022-10-31T21:13:54;12.65;;;7.35;;
28427;SDS011;15662;49.128;8.520;2022-10-31T21:16:25;10.98;;;7.28;;
28427;SDS011;15662;49.128;8.520;2022-10-31T21:18:58;9.82;;;7.40;;
28427;SDS011;15662;49.128;8.520;2022-10-31T21:21:32;10.60;;;7.22;;
28427;SDS011;15662;49.128;8.520;2022-10-31T21:24:09;9.32;;;6.85;;
28427;SDS011;15662;49.128;8.520;2022-10-31T21:26:45;9.25;;;7.47;;
28427;SDS011;15662;49.128;8.520;2022-10-31T21:29:17;10.23;;;6.85;;
28427;SDS011;15662;49.128;8.520;2022-10-31T21:31:46;9.13;;;6.20;;
28427;SDS011;15662;49.128;8.520;2022-10-31T21:34:17;9.27;;;6.10;;
28427;SDS011;15662;49.128;8.520;2022-10-31T21:36:45;8.50;;;5.75;;
28427;SDS011;15662;49.128;8.520;2022-10-31T21:39:13;9.32;;;6.07;;
28427;SDS011;15662;49.128;8.520;2022-10-31T21:41:41;10.25;;;6.90;;
28427;SDS011;15662;49.128;8.520;2022-10-31T21:44:10;8.55;;;6.95;;